Terminal Aerodrome Forecast
Issued by NWS Upton, NY

Home | Current Version | Previous Version | Text Only | Print | Product List | Glossary On
Versions: 1 2 3 4 5 6 7 8 9 10 11 12 13 14 15 16 17 18 19 20 21 22 23 24 25 26 27 28 29 30 31 32 33 34 35 36 37
047
FTUS41 KOKX 251411 AAA
TAFJFK
TAF AMD
KJFK 251411Z 2514/2618 19005KT P6SM FEW100 FEW250
     FM251500 19010KT P6SM SCT080
     FM251700 19012KT P6SM SCT080
     FM252000 19014G18KT P6SM SCT080
     FM252300 21012KT P6SM SCT060
     FM260100 23008KT P6SM SCT060
     FM260300 28010KT P6SM SCT060
     FM261000 28008KT P6SM SKC
     FM261600 22010KT P6SM FEW050=

USA.gov is the U.S. government's official web portal to all federal, state and local government web resources and services.